Farson, Iowa
Current Conditions -  °F | °C
As of 6:15 PM on Sunday 25 Jan 2015 (Local Time) from KOOA Reporting Station
Overcast Overcast  
Wind Chill: 20°   Ceiling: 3200
Heat Index: 29°   Visibility: 10mi
Dew Point: 25°   Wind: 10mph
Humidity: 85%   Direction: 10°N
Pressure: 30.04"   Gusts: NA
Location:  41.2094°N, 92.3382°W
Report Text: KOOA 260015Z AUTO 01009KT 10SM OVC032 M02/M04 A3004 RMK AO2 T10161039
Loading
Personal Weather Stations






























Interactive Weather Map New forecast layout! Learn more

10-Day Weather Forecast

Advertisements
Track Severe Weather on mobile